BXS2543 LIEO-LEMH
Flight info
| Callsign | BXS2543 |
|---|---|
| Flight time | 0h 50m |
| Altitude | 35000 |
| Route | SUTAD DCT GOKMI DCT SUPUX Z924 KUPIM DCT SUXER Z924 RIPAL M603 MORSS |
| Aircraft | A320/M-SDE3FGHIRWY/LB1 |
Departure
| Time | 2026-04-28 16:48 |
|---|---|
| Airport | Olbia Costa Smeralda Airport (LIEO) |
Arrival
| Time | 2026-04-28 17:38 |
|---|---|
| Airport | Menorca Airport (LEMH) |
| Time | Latitude | Longitude | Altitude | Speed | Heading |
|---|---|---|---|---|---|
| 2026-04-28 16:18 | 40.90199 | 9.51574 | 35 ft | 0 kts | 325° |
| 2026-04-28 16:41 | 40.90190 | 9.51582 | 34 ft | 4 kts | 325° |
| 2026-04-28 16:41 | 40.90167 | 9.51606 | 35 ft | 4 kts | 289° |
| 2026-04-28 16:41 | 40.90164 | 9.51643 | 35 ft | 1 kts | 236° |
| 2026-04-28 16:43 | 40.90155 | 9.51627 | 33 ft | 6 kts | 233° |
| 2026-04-28 16:43 | 40.90109 | 9.51545 | 35 ft | 15 kts | 234° |
| 2026-04-28 16:43 | 40.90037 | 9.51506 | 34 ft | 12 kts | 156° |
| 2026-04-28 16:44 | 40.89935 | 9.51492 | 29 ft | 19 kts | 215° |
| 2026-04-28 16:44 | 40.89857 | 9.51351 | 27 ft | 19 kts | 235° |
| 2026-04-28 16:44 | 40.89776 | 9.51199 | 27 ft | 21 kts | 234° |
| 2026-04-28 16:44 | 40.89690 | 9.51039 | 28 ft | 21 kts | 239° |
| 2026-04-28 16:45 | 40.89605 | 9.50872 | 29 ft | 22 kts | 236° |
| 2026-04-28 16:45 | 40.89519 | 9.50700 | 29 ft | 23 kts | 234° |
| 2026-04-28 16:45 | 40.89427 | 9.50523 | 27 ft | 20 kts | 234° |
| 2026-04-28 16:45 | 40.89374 | 9.50458 | 30 ft | 0 kts | 210° |
| 2026-04-28 16:46 | 40.89368 | 9.50453 | 31 ft | 5 kts | 208° |
| 2026-04-28 16:46 | 40.89283 | 9.50491 | 32 ft | 18 kts | 111° |
| 2026-04-28 16:46 | 40.89278 | 9.50633 | 26 ft | 3 kts | 58° |
| 2026-04-28 16:47 | 40.89279 | 9.50636 | 26 ft | 8 kts | 58° |
| 2026-04-28 16:47 | 40.89484 | 9.51026 | 28 ft | 89 kts | 55° |
| 2026-04-28 16:47 | 40.89955 | 9.51928 | 23 ft | 147 kts | 56° |
| 2026-04-28 16:47 | 40.90596 | 9.53195 | 247 ft | 173 kts | 57° |
| 2026-04-28 16:48 | 40.91259 | 9.54529 | 1018 ft | 171 kts | 57° |
| 2026-04-28 16:48 | 40.91912 | 9.55868 | 1786 ft | 171 kts | 57° |
| 2026-04-28 16:48 | 40.92609 | 9.57210 | 2296 ft | 186 kts | 54° |
| 2026-04-28 16:48 | 40.93407 | 9.58674 | 2600 ft | 208 kts | 54° |
| 2026-04-28 16:49 | 40.94307 | 9.60318 | 2909 ft | 233 kts | 54° |
| 2026-04-28 16:49 | 40.95284 | 9.62106 | 3558 ft | 245 kts | 54° |
| 2026-04-28 16:49 | 40.96304 | 9.63981 | 4455 ft | 248 kts | 54° |
| 2026-04-28 16:49 | 40.97080 | 9.66028 | 5303 ft | 253 kts | 77° |
| 2026-04-28 16:50 | 40.97105 | 9.68464 | 5866 ft | 271 kts | 105° |
| 2026-04-28 16:50 | 40.96217 | 9.70670 | 6652 ft | 277 kts | 134° |
| 2026-04-28 16:50 | 40.94620 | 9.72082 | 7490 ft | 280 kts | 162° |
| 2026-04-28 16:50 | 40.92699 | 9.72290 | 8336 ft | 282 kts | 192° |
| 2026-04-28 16:51 | 40.90911 | 9.71209 | 9167 ft | 286 kts | 221° |
| 2026-04-28 16:51 | 40.89747 | 9.69091 | 9997 ft | 289 kts | 248° |
| 2026-04-28 16:51 | 40.89025 | 9.66538 | 10486 ft | 308 kts | 250° |
| 2026-04-28 16:51 | 40.88279 | 9.63768 | 10755 ft | 331 kts | 250° |
| 2026-04-28 16:52 | 40.87499 | 9.60833 | 11265 ft | 344 kts | 250° |
| 2026-04-28 16:52 | 40.86688 | 9.57788 | 11979 ft | 349 kts | 250° |
| 2026-04-28 16:52 | 40.85842 | 9.54649 | 12750 ft | 353 kts | 250° |
| 2026-04-28 16:52 | 40.85021 | 9.51632 | 13449 ft | 357 kts | 250° |
| 2026-04-28 16:53 | 40.84177 | 9.48533 | 14153 ft | 361 kts | 250° |
| 2026-04-28 16:53 | 40.83318 | 9.45393 | 14833 ft | 365 kts | 250° |
| 2026-04-28 16:53 | 40.82451 | 9.42229 | 15517 ft | 368 kts | 250° |
| 2026-04-28 16:53 | 40.81575 | 9.39036 | 16164 ft | 372 kts | 250° |
| 2026-04-28 16:54 | 40.80690 | 9.35813 | 16800 ft | 375 kts | 250° |
| 2026-04-28 16:54 | 40.79797 | 9.32558 | 17413 ft | 379 kts | 250° |
| 2026-04-28 16:54 | 40.78895 | 9.29268 | 17865 ft | 382 kts | 250° |
| 2026-04-28 16:54 | 40.78294 | 9.27079 | 17960 ft | 383 kts | 250° |
| 2026-04-28 16:55 | 40.77081 | 9.22670 | 18005 ft | 383 kts | 250° |
| 2026-04-28 16:55 | 40.76172 | 9.19372 | 18005 ft | 383 kts | 250° |
| 2026-04-28 16:55 | 40.75262 | 9.16072 | 18001 ft | 382 kts | 250° |
| 2026-04-28 16:55 | 40.74350 | 9.12774 | 18005 ft | 382 kts | 250° |
| 2026-04-28 16:56 | 40.73440 | 9.09477 | 18006 ft | 382 kts | 250° |
| 2026-04-28 16:56 | 40.72527 | 9.06177 | 18009 ft | 382 kts | 250° |
| 2026-04-28 16:56 | 40.71612 | 9.02884 | 18013 ft | 382 kts | 250° |
| 2026-04-28 16:56 | 40.71003 | 9.00697 | 18005 ft | 382 kts | 250° |
| 2026-04-28 16:57 | 40.70087 | 8.97400 | 18004 ft | 382 kts | 250° |
| 2026-04-28 16:57 | 40.69164 | 8.94092 | 18261 ft | 386 kts | 250° |
| 2026-04-28 16:57 | 40.68235 | 8.90772 | 18902 ft | 388 kts | 250° |
| 2026-04-28 16:57 | 40.67296 | 8.87413 | 19482 ft | 391 kts | 250° |
| 2026-04-28 16:58 | 40.66353 | 8.84033 | 20031 ft | 394 kts | 250° |
| 2026-04-28 16:58 | 40.65403 | 8.80629 | 20569 ft | 397 kts | 250° |
| 2026-04-28 16:58 | 40.64443 | 8.77199 | 21087 ft | 401 kts | 249° |
| 2026-04-28 16:58 | 40.63477 | 8.73754 | 21579 ft | 404 kts | 249° |
| 2026-04-28 16:59 | 40.62482 | 8.70219 | 22074 ft | 407 kts | 249° |
| 2026-04-28 16:59 | 40.61495 | 8.66718 | 22541 ft | 410 kts | 249° |
| 2026-04-28 16:59 | 40.60500 | 8.63186 | 23007 ft | 413 kts | 249° |
| 2026-04-28 16:59 | 40.59497 | 8.59628 | 23462 ft | 415 kts | 249° |
| 2026-04-28 17:00 | 40.58488 | 8.56056 | 23899 ft | 418 kts | 249° |
| 2026-04-28 17:00 | 40.57468 | 8.52458 | 24325 ft | 421 kts | 249° |
| 2026-04-28 17:00 | 40.56441 | 8.48835 | 24748 ft | 424 kts | 249° |
| 2026-04-28 17:00 | 40.55406 | 8.45194 | 25149 ft | 426 kts | 249° |
| 2026-04-28 17:01 | 40.54365 | 8.41534 | 25552 ft | 429 kts | 249° |
| 2026-04-28 17:01 | 40.53314 | 8.37842 | 25927 ft | 432 kts | 249° |
| 2026-04-28 17:01 | 40.52259 | 8.34142 | 26299 ft | 434 kts | 249° |
| 2026-04-28 17:01 | 40.51193 | 8.30409 | 26666 ft | 437 kts | 249° |
| 2026-04-28 17:02 | 40.50124 | 8.26667 | 27031 ft | 439 kts | 249° |
| 2026-04-28 17:02 | 40.49035 | 8.22852 | 27394 ft | 442 kts | 249° |
| 2026-04-28 17:02 | 40.47965 | 8.19111 | 27734 ft | 444 kts | 249° |
| 2026-04-28 17:02 | 40.46875 | 8.15305 | 28080 ft | 446 kts | 249° |
| 2026-04-28 17:03 | 40.44649 | 8.07588 | 28721 ft | 451 kts | 249° |
| 2026-04-28 17:03 | 40.43549 | 8.03787 | 29016 ft | 453 kts | 249° |
| 2026-04-28 17:03 | 40.42530 | 7.99866 | 29303 ft | 455 kts | 255° |
| 2026-04-28 17:04 | 40.41416 | 7.91643 | 29867 ft | 459 kts | 261° |
| 2026-04-28 17:04 | 40.40898 | 7.87490 | 30147 ft | 461 kts | 260° |
| 2026-04-28 17:05 | 40.39843 | 7.79143 | 30748 ft | 463 kts | 260° |
| 2026-04-28 17:05 | 40.39311 | 7.74988 | 31130 ft | 462 kts | 260° |
| 2026-04-28 17:05 | 40.38777 | 7.70833 | 31506 ft | 461 kts | 260° |
| 2026-04-28 17:06 | 40.37708 | 7.62550 | 32229 ft | 459 kts | 260° |
| 2026-04-28 17:06 | 40.37168 | 7.58364 | 32585 ft | 459 kts | 260° |
| 2026-04-28 17:06 | 40.36109 | 7.50130 | 33271 ft | 457 kts | 260° |
| 2026-04-28 17:07 | 40.35581 | 7.46024 | 33608 ft | 457 kts | 260° |
| 2026-04-28 17:07 | 40.35052 | 7.41923 | 33944 ft | 456 kts | 260° |
| 2026-04-28 17:07 | 40.34516 | 7.37826 | 34270 ft | 455 kts | 260° |
| 2026-04-28 17:07 | 40.33976 | 7.33728 | 34602 ft | 455 kts | 260° |
| 2026-04-28 17:08 | 40.33435 | 7.29648 | 34904 ft | 455 kts | 260° |
| 2026-04-28 17:08 | 40.32896 | 7.25572 | 35001 ft | 454 kts | 260° |
| 2026-04-28 17:08 | 40.31818 | 7.17419 | 35014 ft | 453 kts | 260° |
| 2026-04-28 17:09 | 40.30737 | 7.09290 | 35009 ft | 452 kts | 260° |
| 2026-04-28 17:09 | 40.29652 | 7.01172 | 35010 ft | 452 kts | 260° |
| 2026-04-28 17:10 | 40.28559 | 6.93064 | 35006 ft | 452 kts | 259° |
| 2026-04-28 17:10 | 40.27462 | 6.84944 | 35006 ft | 452 kts | 259° |
| 2026-04-28 17:11 | 40.26358 | 6.76837 | 35008 ft | 452 kts | 259° |
| 2026-04-28 17:11 | 40.25247 | 6.68728 | 35005 ft | 452 kts | 259° |
| 2026-04-28 17:12 | 40.24133 | 6.60628 | 35010 ft | 452 kts | 259° |
| 2026-04-28 17:12 | 40.23016 | 6.52517 | 35004 ft | 452 kts | 259° |
| 2026-04-28 17:13 | 40.21894 | 6.44415 | 35007 ft | 452 kts | 259° |
| 2026-04-28 17:13 | 40.20762 | 6.36315 | 35012 ft | 452 kts | 259° |
| 2026-04-28 17:14 | 40.19619 | 6.28215 | 35005 ft | 452 kts | 259° |
| 2026-04-28 17:14 | 40.18475 | 6.20122 | 35003 ft | 452 kts | 259° |
| 2026-04-28 17:15 | 40.17331 | 6.12037 | 35006 ft | 452 kts | 259° |
| 2026-04-28 17:15 | 40.16187 | 6.03953 | 35002 ft | 452 kts | 259° |
| 2026-04-28 17:16 | 40.15029 | 5.95874 | 35002 ft | 452 kts | 259° |
| 2026-04-28 17:16 | 40.13860 | 5.87804 | 35004 ft | 452 kts | 259° |
| 2026-04-28 17:17 | 40.13272 | 5.83717 | 34846 ft | 451 kts | 259° |
| 2026-04-28 17:17 | 40.12698 | 5.79680 | 33467 ft | 454 kts | 259° |
| 2026-04-28 17:17 | 40.12119 | 5.75580 | 31656 ft | 465 kts | 259° |
| 2026-04-28 17:17 | 40.11539 | 5.71445 | 30097 ft | 470 kts | 259° |
| 2026-04-28 17:18 | 40.10950 | 5.67241 | 29508 ft | 459 kts | 259° |
| 2026-04-28 17:18 | 40.10382 | 5.63188 | 29038 ft | 450 kts | 259° |
| 2026-04-28 17:18 | 40.09818 | 5.59186 | 28372 ft | 447 kts | 259° |
| 2026-04-28 17:18 | 40.09251 | 5.55210 | 27728 ft | 443 kts | 259° |
| 2026-04-28 17:19 | 40.08687 | 5.51273 | 27091 ft | 439 kts | 259° |
| 2026-04-28 17:19 | 40.08127 | 5.47372 | 26462 ft | 436 kts | 259° |
| 2026-04-28 17:19 | 40.07570 | 5.43502 | 25838 ft | 432 kts | 259° |
| 2026-04-28 17:19 | 40.07017 | 5.39668 | 25218 ft | 428 kts | 259° |
| 2026-04-28 17:20 | 40.06468 | 5.35868 | 24607 ft | 424 kts | 259° |
| 2026-04-28 17:20 | 40.06108 | 5.33374 | 24213 ft | 421 kts | 259° |
| 2026-04-28 17:20 | 40.05383 | 5.28382 | 23456 ft | 415 kts | 259° |
| 2026-04-28 17:20 | 40.04846 | 5.24710 | 22906 ft | 410 kts | 259° |
| 2026-04-28 17:21 | 40.04312 | 5.21081 | 22385 ft | 405 kts | 259° |
| 2026-04-28 17:21 | 40.03784 | 5.17493 | 21898 ft | 400 kts | 259° |
| 2026-04-28 17:21 | 40.03264 | 5.13946 | 21410 ft | 395 kts | 259° |
| 2026-04-28 17:22 | 40.02246 | 5.06988 | 20477 ft | 386 kts | 259° |
| 2026-04-28 17:22 | 40.01745 | 5.03574 | 19999 ft | 382 kts | 259° |
| 2026-04-28 17:22 | 40.01247 | 5.00185 | 19530 ft | 379 kts | 259° |
| 2026-04-28 17:23 | 40.00258 | 4.93493 | 18544 ft | 373 kts | 259° |
| 2026-04-28 17:23 | 39.99763 | 4.90167 | 18046 ft | 371 kts | 259° |
| 2026-04-28 17:23 | 39.99273 | 4.86874 | 17550 ft | 369 kts | 258° |
| 2026-04-28 17:23 | 39.98779 | 4.83590 | 17045 ft | 367 kts | 258° |
| 2026-04-28 17:24 | 39.98288 | 4.80332 | 16543 ft | 366 kts | 258° |
| 2026-04-28 17:24 | 39.97795 | 4.77078 | 16014 ft | 365 kts | 258° |
| 2026-04-28 17:24 | 39.97235 | 4.73855 | 15492 ft | 364 kts | 256° |
| 2026-04-28 17:24 | 39.96598 | 4.70658 | 14969 ft | 363 kts | 255° |
| 2026-04-28 17:25 | 39.96152 | 4.68554 | 14633 ft | 362 kts | 254° |
| 2026-04-28 17:25 | 39.94788 | 4.62252 | 13580 ft | 360 kts | 254° |
| 2026-04-28 17:25 | 39.94119 | 4.59114 | 13031 ft | 358 kts | 254° |
| 2026-04-28 17:26 | 39.93458 | 4.55987 | 12497 ft | 356 kts | 253° |
| 2026-04-28 17:26 | 39.92402 | 4.53107 | 11949 ft | 353 kts | 233° |
| 2026-04-28 17:26 | 39.90617 | 4.50915 | 11179 ft | 356 kts | 211° |
| 2026-04-28 17:26 | 39.88342 | 4.49844 | 10568 ft | 341 kts | 188° |
| 2026-04-28 17:27 | 39.86058 | 4.49766 | 10376 ft | 315 kts | 181° |
| 2026-04-28 17:27 | 39.83939 | 4.49593 | 10227 ft | 292 kts | 187° |
| 2026-04-28 17:27 | 39.82012 | 4.49193 | 10163 ft | 269 kts | 191° |
| 2026-04-28 17:27 | 39.80254 | 4.48665 | 10088 ft | 250 kts | 196° |
| 2026-04-28 17:28 | 39.78645 | 4.47995 | 9981 ft | 235 kts | 201° |
| 2026-04-28 17:28 | 39.75690 | 4.46196 | 9058 ft | 236 kts | 210° |
| 2026-04-28 17:28 | 39.74294 | 4.45064 | 8596 ft | 236 kts | 214° |
| 2026-04-28 17:29 | 39.72970 | 4.43810 | 8151 ft | 235 kts | 218° |
| 2026-04-28 17:29 | 39.71727 | 4.42441 | 7709 ft | 234 kts | 223° |
| 2026-04-28 17:29 | 39.70573 | 4.40958 | 7266 ft | 233 kts | 227° |
| 2026-04-28 17:30 | 39.68551 | 4.37700 | 6395 ft | 230 kts | 235° |
| 2026-04-28 17:30 | 39.66944 | 4.34165 | 5569 ft | 226 kts | 244° |
| 2026-04-28 17:30 | 39.66302 | 4.32312 | 5151 ft | 224 kts | 248° |
| 2026-04-28 17:31 | 39.65764 | 4.30418 | 4732 ft | 223 kts | 252° |
| 2026-04-28 17:31 | 39.65012 | 4.26551 | 3900 ft | 220 kts | 260° |
| 2026-04-28 17:32 | 39.64702 | 4.22819 | 3641 ft | 188 kts | 267° |
| 2026-04-28 17:32 | 39.64763 | 4.21217 | 3579 ft | 168 kts | 283° |
| 2026-04-28 17:32 | 39.65241 | 4.19899 | 3521 ft | 159 kts | 307° |
| 2026-04-28 17:32 | 39.66026 | 4.18976 | 3460 ft | 149 kts | 328° |
| 2026-04-28 17:33 | 39.66982 | 4.18512 | 3386 ft | 147 kts | 350° |
| 2026-04-28 17:33 | 39.68005 | 4.18509 | 3317 ft | 147 kts | 4° |
| 2026-04-28 17:33 | 39.69029 | 4.18573 | 3248 ft | 147 kts | 1° |
| 2026-04-28 17:33 | 39.69706 | 4.18615 | 3218 ft | 148 kts | 4° |
| 2026-04-28 17:34 | 39.71070 | 4.18800 | 3028 ft | 147 kts | 7° |
| 2026-04-28 17:34 | 39.72085 | 4.18981 | 2847 ft | 147 kts | 7° |
| 2026-04-28 17:34 | 39.73093 | 4.19175 | 2670 ft | 146 kts | 8° |
| 2026-04-28 17:34 | 39.74100 | 4.19376 | 2471 ft | 146 kts | 8° |
| 2026-04-28 17:35 | 39.75102 | 4.19579 | 2279 ft | 145 kts | 8° |
| 2026-04-28 17:35 | 39.76101 | 4.19782 | 2086 ft | 145 kts | 8° |
| 2026-04-28 17:35 | 39.77096 | 4.19985 | 1894 ft | 145 kts | 8° |
| 2026-04-28 17:35 | 39.78087 | 4.20188 | 1707 ft | 144 kts | 8° |
| 2026-04-28 17:36 | 39.79074 | 4.20391 | 1511 ft | 144 kts | 8° |
| 2026-04-28 17:36 | 39.80062 | 4.20593 | 1320 ft | 143 kts | 8° |
| 2026-04-28 17:36 | 39.81043 | 4.20794 | 1133 ft | 143 kts | 8° |
| 2026-04-28 17:36 | 39.82023 | 4.20995 | 941 ft | 142 kts | 8° |
| 2026-04-28 17:37 | 39.83001 | 4.21196 | 751 ft | 142 kts | 8° |
| 2026-04-28 17:37 | 39.83978 | 4.21397 | 562 ft | 142 kts | 8° |
| 2026-04-28 17:37 | 39.84952 | 4.21597 | 348 ft | 141 kts | 8° |
| 2026-04-28 17:37 | 39.85877 | 4.21784 | 297 ft | 118 kts | 8° |
| 2026-04-28 17:38 | 39.86457 | 4.21894 | 298 ft | 24 kts | 8° |
| 2026-04-28 17:38 | 39.86555 | 4.21951 | 304 ft | 10 kts | 44° |
| 2026-04-28 17:38 | 39.86569 | 4.22036 | 301 ft | 9 kts | 106° |
| 2026-04-28 17:38 | 39.86553 | 4.22155 | 303 ft | 30 kts | 96° |
| 2026-04-28 17:39 | 39.86539 | 4.22318 | 304 ft | 10 kts | 78° |
| 2026-04-28 17:39 | 39.86534 | 4.22394 | 302 ft | 6 kts | 98° |
| 2026-04-28 17:39 | 39.86532 | 4.22409 | 302 ft | 0 kts | 96° |